Informes METAR cercanos


LEVC - Manises, Valencia, ESPAÑA
Distance from station: NNE 72km
Actualización: 16/05/2022 19:30
Despejado
Despejado
 Viento del SE
Viento: SE 13 km/h
Temperatura: 25°C
Rocío: 13°C
Humedad: 47%
Barómetro: 1018 hPa
Resumen: Despejado
Visibility: Mas de 10 km
2022/05/16 17:30 LEVC 161730Z 14007KT 110V170 CAVOK 25/13 Q1018 NOSIG
LEAL - El Altet, Alicante, ESPAÑA
Distance from station: S 70km
Actualización: 16/05/2022 19:30
Despejado
Despejado
 Viento del E
Viento: E 9 km/h
Temperatura: 23°C
Rocío: 18°C
Humedad: 74%
Barómetro: 1018 hPa
Resumen: Despejado
Visibility: Mas de 10 km
2022/05/16 17:30 LEAL 161730Z 10005KT 070V140 CAVOK 23/18 Q1018 NOSIG
 
LELC - San Javier, Murcia, ESPAÑA
Distance from station: SSO 188km
Actualización: 16/05/2022 19:30
Despejado
Despejado
 Viento del E
Viento: E 7 km/h
Temperatura: 23°C
Rocío: 16°C
Humedad: 65%
Barómetro: 1018 hPa
Resumen: Despejado
Visibility: Mas de 10 km
2022/05/16 17:30 LELC 161730Z 08004KT 040V140 CAVOK 23/16 Q1018 NOSIG
LEAB - Los Llanos, Albacete, ESPAÑA
Distance from station: O 143km
Actualización: 16/05/2022 19:30
Despejado
Despejado
 Viento del varies
Viento: varies 6 km/h
Temperatura: 29°C
Rocío: 10°C
Humedad: 31%
Barómetro: 1020 hPa
Resumen: Despejado
Visibility: Mas de 10 km
2022/05/16 17:30 LEAB 161730Z VRB03KT CAVOK 29/10 Q1020 NOSIG